»·PEaware :: ASA2013 KSLC-KSNA

ASA2013 :: KSLC-KSNA

FLIGHT INFORMATION

Flight Status: Arrived
Operator:
Alaska Airlines
More flights by this operator :: More flights under this callsign
Pilot: Andrew C. (28419)
Aircraft: BOEING 737-800
(B738)
More flights by this aircraft type
Origin: KSLC Salt Lake City Intl
United States
Destination: KSNA John Wayne-Orange Co
United States
More flights between these airports :: More routes between these airports
Route: ZIONZ1 EHK BLD Q114 NATEE DSNEE4
File this flight plan on PilotEdge
Remarks: RMK / SIMBRIEF
Altitude:
(Current/Filed)
36,000ft
Speed:
(Current/Filed)
451kts
Departed: 15-Oct-20 07:16 PM
Arrived: 15-Oct-20 08:41 PM
Distance/Time
Traveled:
511nm/1:24
Distance/Time
To Go:
Arrived

Flight Plot

Page will automatically refresh every two minutes.

Flight plan parsing failed; only flown route is shown


Map Options




Map Legend


Flown Route
Filed Route
Departure Airport
Arrival Airport
Navaid (VOR, NDB)
Fix

Horizontal Profiles

Position Reports

Time Latitude Longitude Heading Altitude Ground
Speed
15-Oct-20 18:44 40.785573 -111.977951 230 4237ft 0kts
15-Oct-20 18:45 40.785573 -111.977951 230 4237ft 0kts
15-Oct-20 18:46 40.785573 -111.977951 230 4237ft 0kts
15-Oct-20 18:47 40.785573 -111.977951 230 4237ft 0kts
15-Oct-20 18:48 40.785573 -111.977951 230 4237ft 0kts
15-Oct-20 18:49 40.785573 -111.977951 230 4237ft 0kts
15-Oct-20 18:50 40.785574 -111.977951 230 4237ft 0kts
15-Oct-20 18:51 40.785574 -111.977951 230 4237ft 0kts
15-Oct-20 18:52 40.785574 -111.977951 230 4237ft 0kts
15-Oct-20 18:53 40.785574 -111.977951 230 4237ft 0kts
15-Oct-20 18:54 40.785574 -111.977951 230 4237ft 0kts
15-Oct-20 18:55 40.785574 -111.977951 230 4237ft 0kts
15-Oct-20 18:56 40.785574 -111.977951 230 4237ft 0kts
15-Oct-20 18:57 40.785574 -111.977951 230 4237ft 0kts
15-Oct-20 18:58 40.785574 -111.977951 230 4237ft 0kts
15-Oct-20 18:59 40.785574 -111.977951 230 4237ft 0kts
15-Oct-20 19:00 40.785574 -111.977951 230 4237ft 0kts
15-Oct-20 19:01 40.785574 -111.977951 230 4237ft 0kts
15-Oct-20 19:02 40.785574 -111.977950 230 4237ft 0kts
15-Oct-20 19:03 40.785574 -111.977950 230 4237ft 0kts
15-Oct-20 19:04 40.785705 -111.977745 229 4237ft 0kts
15-Oct-20 19:05 40.786165 -111.977856 102 4237ft 2kts
15-Oct-20 19:06 40.786167 -111.978041 83 4237ft 0kts
15-Oct-20 19:07 40.786167 -111.978041 83 4237ft 0kts
15-Oct-20 19:08 40.786167 -111.978041 83 4237ft 0kts
15-Oct-20 19:09 40.786167 -111.978041 83 4237ft 0kts
15-Oct-20 19:10 40.789144 -111.976999 358 4237ft 25kts
15-Oct-20 19:11 40.795462 -111.977730 355 4237ft 20kts
15-Oct-20 19:12 40.802013 -111.978478 359 4237ft 23kts
15-Oct-20 19:13 40.807031 -111.978535 14 4237ft 1kts
15-Oct-20 19:14 40.807077 -111.978518 16 4237ft 0kts
15-Oct-20 19:15 40.802124 -111.976310 175 4237ft 98kts
15-Oct-20 19:16 40.755001 -111.968671 171 5602ft 203kts
15-Oct-20 19:17 40.687305 -111.953989 171 7265ft 276kts
15-Oct-20 19:18 40.609178 -111.937286 171 10046ft 300kts
15-Oct-20 19:19 40.516872 -111.916605 171 11654ft 363kts
15-Oct-20 19:20 40.414886 -111.892454 171 14295ft 385kts
15-Oct-20 19:21 40.310920 -111.908083 207 16905ft 390kts
15-Oct-20 19:22 40.207627 -111.959197 204 19411ft 405kts
15-Oct-20 19:23 40.100715 -112.009229 205 21755ft 415kts
15-Oct-20 19:24 39.991082 -112.060255 205 23867ft 425kts
15-Oct-20 19:25 39.878862 -112.112371 205 25743ft 434kts
15-Oct-20 19:26 39.763547 -112.166017 205 27318ft 445kts
15-Oct-20 19:27 39.645841 -112.220335 205 28808ft 454kts
15-Oct-20 19:28 39.526331 -112.275490 205 30166ft 461kts
15-Oct-20 19:29 39.405792 -112.331020 204 31797ft 459kts
15-Oct-20 19:30 39.286745 -112.385787 205 33459ft 452kts
15-Oct-20 19:31 39.169215 -112.439795 205 34877ft 447kts
15-Oct-20 19:32 39.052769 -112.493231 205 35997ft 447kts
15-Oct-20 19:33 38.935907 -112.546747 205 36000ft 443kts
15-Oct-20 19:34 38.819875 -112.599816 205 36000ft 443kts
15-Oct-20 19:35 38.704273 -112.652598 204 36000ft 443kts
15-Oct-20 19:36 38.587771 -112.705712 204 35999ft 443kts
15-Oct-20 19:37 38.471857 -112.758457 204 36000ft 443kts
15-Oct-20 19:38 38.356170 -112.811015 204 36000ft 443kts
15-Oct-20 19:39 38.239878 -112.863758 204 36000ft 443kts
15-Oct-20 19:40 38.124308 -112.916095 204 36000ft 443kts
15-Oct-20 19:41 38.008494 -112.968457 204 35999ft 443kts
15-Oct-20 19:42 37.892844 -113.020667 203 35999ft 441kts
15-Oct-20 19:43 37.777691 -113.072880 207 35997ft 440kts
15-Oct-20 19:44 37.684682 -113.167361 225 35999ft 431kts
15-Oct-20 19:45 37.593853 -113.265869 223 35999ft 430kts
15-Oct-20 19:46 37.501586 -113.362039 223 35999ft 431kts
15-Oct-20 19:47 37.408819 -113.457402 222 35999ft 431kts
15-Oct-20 19:48 37.315491 -113.552722 222 36000ft 431kts
15-Oct-20 19:49 37.222417 -113.647397 222 36000ft 431kts
15-Oct-20 19:50 37.128967 -113.742111 222 36242ft 435kts
15-Oct-20 19:51 37.035117 -113.836918 222 36219ft 431kts
15-Oct-20 19:52 36.941941 -113.930740 221 36219ft 432kts
15-Oct-20 19:53 36.848146 -114.024893 221 36217ft 432kts
15-Oct-20 19:54 36.754261 -114.118811 221 36199ft 433kts
15-Oct-20 19:55 36.660403 -114.212403 221 36181ft 433kts
15-Oct-20 19:56 36.566466 -114.305771 221 36170ft 433kts
15-Oct-20 19:57 36.472204 -114.399161 221 36165ft 433kts
15-Oct-20 19:58 36.378121 -114.492080 221 36164ft 433kts
15-Oct-20 19:59 36.283915 -114.584818 221 36164ft 433kts
15-Oct-20 20:00 36.189428 -114.677539 220 36164ft 433kts
15-Oct-20 20:01 36.095132 -114.769767 220 36164ft 433kts
15-Oct-20 20:02 36.002139 -114.864011 226 36164ft 431kts
15-Oct-20 20:03 35.919526 -114.970068 229 36156ft 429kts
15-Oct-20 20:04 35.839117 -115.078425 229 36158ft 428kts
15-Oct-20 20:05 35.759031 -115.187102 229 36170ft 429kts
15-Oct-20 20:06 35.678959 -115.295695 229 36173ft 428kts
15-Oct-20 20:08 35.598927 -115.403818 229 36173ft 429kts
15-Oct-20 20:09 35.518595 -115.511616 229 36173ft 428kts
15-Oct-20 20:10 35.438168 -115.619615 229 36120ft 428kts
15-Oct-20 20:11 35.357818 -115.727276 229 36060ft 428kts
15-Oct-20 20:12 35.277423 -115.834698 229 36054ft 427kts
15-Oct-20 20:13 35.196531 -115.940835 227 36055ft 424kts
15-Oct-20 20:14 35.114657 -116.043366 227 36084ft 423kts
15-Oct-20 20:15 35.032131 -116.147054 227 34895ft 436kts
15-Oct-20 20:16 34.948249 -116.252302 226 32154ft 425kts
15-Oct-20 20:17 34.866945 -116.354202 226 29924ft 414kts
15-Oct-20 20:18 34.788575 -116.453852 226 27786ft 402kts
15-Oct-20 20:19 34.712594 -116.550639 226 25744ft 392kts
15-Oct-20 20:20 34.629787 -116.636817 219 23146ft 398kts
15-Oct-20 20:21 34.545322 -116.719572 218 21168ft 383kts
15-Oct-20 20:22 34.466458 -116.803621 223 19156ft 374kts
15-Oct-20 20:22 34.405013 -116.874854 223 17639ft 363kts
15-Oct-20 20:24 34.321673 -116.971313 223 15559ft 350kts
15-Oct-20 20:24 34.262102 -117.036494 214 14210ft 339kts
15-Oct-20 20:26 34.167869 -117.104320 205 13146ft 335kts
15-Oct-20 20:26 34.096077 -117.142972 203 13044ft 341kts
15-Oct-20 20:28 33.998678 -117.200434 218 12022ft 328kts
15-Oct-20 20:28 33.945364 -117.267842 229 10235ft 332kts
15-Oct-20 20:29 33.889064 -117.347163 230 9373ft 300kts
15-Oct-20 20:30 33.838736 -117.418337 230 8222ft 251kts
15-Oct-20 20:31 33.822725 -117.495872 279 7209ft 250kts
15-Oct-20 20:32 33.831947 -117.575577 280 6159ft 226kts
15-Oct-20 20:33 33.833074 -117.647472 272 4976ft 199kts
15-Oct-20 20:34 33.832949 -117.711844 271 4167ft 183kts
15-Oct-20 20:35 33.824608 -117.771010 226 3207ft 179kts
15-Oct-20 20:36 33.781507 -117.801658 208 2280ft 174kts
15-Oct-20 20:37 33.742219 -117.826605 208 1329ft 143kts
15-Oct-20 20:38 33.706242 -117.849475 207 626ft 148kts
15-Oct-20 20:39 33.673582 -117.870176 206 66ft 48kts
15-Oct-20 20:40 33.669239 -117.871694 128 66ft 0kts
15-Oct-20 20:41 33.669534 -117.870490 40 66ft 6kts
15-Oct-20 20:42 33.671923 -117.868246 29 66ft 14kts
15-Oct-20 20:43 33.674965 -117.865933 27 66ft 11kts
15-Oct-20 20:44 33.675366 -117.864866 117 66ft 0kts

Navigation Log

Ident Type
Flight plan parsing failed, navigation log unavailable